Time;durP1;ratioP1;P1;durP2;ratioP2;P2;SDS_P1;SDS_P2;PMS_P1;PMS_P2;Temp;Humidity;BMP_temperature;BMP_pressure;BME280_temperature;BME280_humidity;BME280_pressure;Samples;Min_cycle;Max_cycle;Signal;HPM_P1;HPM_P2
2022/07/29 00:04:16;;;;;;;9.50;2.30;;;;;;;20.65;47.76;99316.19;238652;1192;139954;-58
2022/07/29 00:09:19;;;;;;;10.70;2.90;;;;;;;20.60;47.80;99313.69;238642;1192;139892;-58
2022/07/29 00:14:22;;;;;;;5.30;2.40;;;;;;;20.56;47.76;99311.53;238833;1192;140089;-59
2022/07/29 00:19:25;;;;;;;5.60;2.70;;;;;;;20.52;47.72;99309.52;238729;1192;139733;-59
2022/07/29 00:24:28;;;;;;;4.90;2.30;;;;;;;20.48;47.85;99312.27;238802;1192;140456;-58
2022/07/29 00:29:31;;;;;;;6.70;2.40;;;;;;;20.46;47.83;99314.21;238908;1190;138732;-59
2022/07/29 00:39:58;;;;;;;4.60;2.20;;;;;;;20.35;47.63;99319.49;238700;1192;138907;-59
2022/07/29 00:45:00;;;;;;;6.20;2.00;;;;;;;20.28;47.76;99315.30;238861;1190;139519;-59
2022/07/29 00:50:05;;;;;;;6.20;2.20;;;;;;;20.25;47.93;99313.27;238711;1190;139095;-59
2022/07/29 00:55:11;;;;;;;5.20;2.10;;;;;;;20.23;47.90;99315.83;238732;1191;139220;-59
2022/07/29 01:00:22;;;;;;;5.40;2.30;;;;;;;20.18;47.92;99310.51;238413;1192;140359;-58
2022/07/29 01:05:27;;;;;;;7.70;2.50;;;;;;;20.14;47.98;99300.48;238462;1192;139292;-59
2022/07/29 01:10:51;;;;;;;6.10;2.00;;;;;;;20.09;48.09;99300.23;238483;1192;139932;-59
2022/07/29 01:16:06;;;;;;;6.90;2.00;;;;;;;20.07;48.22;99300.93;238652;1191;139122;-59
2022/07/29 01:21:38;;;;;;;5.60;2.30;;;;;;;20.08;48.15;99297.79;238415;1191;139493;-59
2022/07/29 01:26:57;;;;;;;4.50;2.40;;;;;;;20.11;48.11;99295.61;238666;1192;139263;-56
2022/07/29 01:32:18;;;;;;;5.20;2.10;;;;;;;20.11;48.09;99293.05;238693;1191;139652;-59
2022/07/29 01:37:56;;;;;;;3.50;1.80;;;;;;;20.11;48.17;99291.96;238736;1190;138656;-58
2022/07/29 01:43:08;;;;;;;5.10;2.50;;;;;;;20.11;48.17;99285.66;238784;1192;140998;-58
2022/07/29 01:48:31;;;;;;;5.20;2.10;;;;;;;20.10;48.18;99295.41;238710;1190;139506;-58
2022/07/29 01:53:42;;;;;;;4.80;2.00;;;;;;;20.11;48.06;99291.39;238166;1192;139277;-58
2022/07/29 01:58:48;;;;;;;8.80;2.40;;;;;;;20.07;48.03;99293.35;238140;1193;139546;-58
2022/07/29 02:03:53;;;;;;;5.50;2.30;;;;;;;20.06;48.05;99292.45;238659;1190;139532;-59
2022/07/29 02:08:58;;;;;;;;;;;;;;;20.05;47.99;99287.41;238750;1190;141147;-59
2022/07/29 02:14:03;;;;;;;4.40;2.00;;;;;;;20.03;47.98;99284.27;238915;1190;125628;-59
2022/07/29 02:19:08;;;;;;;6.00;2.20;;;;;;;20.00;47.96;99275.18;238833;1190;139002;-59
2022/07/29 02:24:12;;;;;;;5.70;2.00;;;;;;;19.98;48.02;99274.83;238613;1192;138899;-58
2022/07/29 02:29:19;;;;;;;7.20;2.10;;;;;;;19.96;48.09;99270.51;238735;1192;139355;-59
2022/07/29 02:34:23;;;;;;;4.10;2.50;;;;;;;19.95;48.11;99267.35;238767;1190;139705;-59
2022/07/29 02:39:28;;;;;;;8.20;2.00;;;;;;;19.94;48.13;99259.55;238814;1190;139174;-59
2022/07/29 02:44:34;;;;;;;3.60;1.90;;;;;;;19.94;48.10;99255.62;238462;1192;139324;-58
2022/07/29 02:49:42;;;;;;;5.70;2.20;;;;;;;19.93;47.99;99256.81;238482;1192;142246;-59
2022/07/29 02:55:19;;;;;;;3.10;1.90;;;;;;;19.91;48.10;99247.08;238413;1192;139254;-58
2022/07/29 03:00:28;;;;;;;3.50;1.90;;;;;;;19.88;48.07;99242.68;238849;1190;139708;-59
2022/07/29 03:05:32;;;;;;;3.50;1.70;;;;;;;19.83;48.12;99246.58;238971;1190;139060;-59
2022/07/29 03:10:38;;;;;;;4.00;1.70;;;;;;;19.80;48.04;99248.35;238843;1190;139403;-57
2022/07/29 03:15:45;;;;;;;4.70;2.10;;;;;;;19.78;48.08;99248.70;238751;1190;139892;-59
2022/07/29 03:20:48;;;;;;;3.20;1.80;;;;;;;19.76;48.18;99251.77;238598;1192;139278;-58
2022/07/29 03:25:52;;;;;;;2.90;1.70;;;;;;;19.73;48.09;99248.60;238499;1190;140286;-58
2022/07/29 03:30:56;;;;;;;4.70;2.10;;;;;;;19.71;48.16;99250.94;238781;1190;139433;-58
2022/07/29 03:36:02;;;;;;;4.40;1.80;;;;;;;19.70;48.19;99252.57;238778;1190;253305;-59
2022/07/29 03:41:10;;;;;;;5.50;2.10;;;;;;;19.67;48.30;99259.00;238909;1190;138998;-58
2022/07/29 03:46:16;;;;;;;3.90;2.00;;;;;;;19.65;48.32;99262.96;238370;1192;139366;-58
2022/07/29 03:51:19;;;;;;;4.00;1.80;;;;;;;19.64;48.44;99258.92;238533;1192;139523;-58
2022/07/29 03:56:39;;;;;;;6.30;1.90;;;;;;;19.62;48.51;99264.03;238472;1192;139262;-58
2022/07/29 04:01:43;;;;;;;3.00;1.70;;;;;;;19.63;48.62;99269.58;238531;1192;139162;-58
2022/07/29 04:06:46;;;;;;;8.00;2.30;;;;;;;19.66;48.70;99268.77;238503;1192;139905;-57
2022/07/29 04:11:50;;;;;;;7.00;2.30;;;;;;;19.70;48.68;99269.83;238471;1192;139295;-58
2022/07/29 04:17:04;;;;;;;7.20;2.00;;;;;;;19.71;48.66;99268.52;238370;1191;140274;-56
2022/07/29 04:22:07;;;;;;;3.70;2.00;;;;;;;19.71;48.73;99259.40;238512;1192;140613;-59
2022/07/29 04:27:10;;;;;;;6.50;2.20;;;;;;;19.73;48.78;99261.29;238429;1192;138914;-56
2022/07/29 04:32:13;;;;;;;5.70;2.00;;;;;;;19.76;48.95;99262.55;238449;1192;139872;-58
2022/07/29 04:37:16;;;;;;;4.90;2.00;;;;;;;19.79;48.89;99264.41;238428;1192;140652;-59
2022/07/29 04:42:19;;;;;;;3.70;1.80;;;;;;;19.85;48.95;99256.52;238596;1191;138948;-59
2022/07/29 04:47:29;;;;;;;9.10;2.80;;;;;;;19.92;48.88;99259.23;238964;1190;139746;-58
2022/07/29 04:52:32;;;;;;;5.10;2.00;;;;;;;19.96;48.71;99270.34;238512;1191;139300;-58
2022/07/29 04:57:35;;;;;;;3.80;1.70;;;;;;;20.00;48.73;99264.72;238281;1192;139963;-57
2022/07/29 05:02:38;;;;;;;5.90;2.00;;;;;;;20.04;48.68;99254.40;238549;1192;139435;-59
2022/07/29 05:07:41;;;;;;;5.50;2.10;;;;;;;20.10;48.74;99250.27;238750;1190;139032;-58
2022/07/29 05:12:44;;;;;;;4.70;2.00;;;;;;;20.14;48.73;99247.92;238818;1190;139988;-60
2022/07/29 05:17:47;;;;;;;4.70;1.80;;;;;;;20.18;48.84;99244.94;238893;1190;139620;-59
2022/07/29 05:22:50;;;;;;;2.90;1.70;;;;;;;20.22;48.75;99247.04;238220;1190;138990;-59
2022/07/29 05:27:54;;;;;;;5.10;1.70;;;;;;;20.26;48.81;99251.34;238702;1190;139024;-60
2022/07/29 05:32:57;;;;;;;7.20;2.00;;;;;;;20.32;48.78;99255.44;238654;1192;140374;-58
2022/07/29 05:38:00;;;;;;;4.20;1.70;;;;;;;20.40;48.75;99256.63;238661;1191;139256;-60
2022/07/29 05:43:03;;;;;;;5.70;2.20;;;;;;;20.55;48.82;99248.33;238753;1190;140490;-60
2022/07/29 05:48:05;;;;;;;5.60;1.70;;;;;;;20.75;48.77;99249.04;238623;1192;140204;-59
2022/07/29 05:53:10;;;;;;;5.20;1.90;;;;;;;20.88;48.68;99250.47;238874;1191;139403;-59
2022/07/29 05:58:22;;;;;;;6.50;1.80;;;;;;;20.94;48.61;99248.84;238608;1190;139346;-59
2022/07/29 06:03:25;;;;;;;10.30;2.00;;;;;;;20.97;48.57;99252.03;238745;1190;139080;-60
2022/07/29 06:08:28;;;;;;;7.30;1.80;;;;;;;20.99;48.64;99256.52;238736;1190;138936;-59
2022/07/29 06:13:31;;;;;;;5.40;1.90;;;;;;;21.00;48.55;99259.67;238613;1192;139907;-60
2022/07/29 06:18:34;;;;;;;5.00;1.90;;;;;;;21.03;48.54;99256.63;238469;1190;139805;-59
2022/07/29 06:23:38;;;;;;;7.10;1.80;;;;;;;21.07;48.60;99256.61;238939;1190;139366;-59
2022/07/29 06:28:41;;;;;;;6.10;2.00;;;;;;;21.11;48.67;99257.86;238547;1192;139655;-60
2022/07/29 06:33:44;;;;;;;6.60;1.80;;;;;;;21.19;48.73;99257.90;238520;1191;139641;-60
2022/07/29 06:38:47;;;;;;;9.40;2.10;;;;;;;21.32;48.93;99258.75;238647;1192;139455;-60
2022/07/29 06:43:53;;;;;;;12.80;2.20;;;;;;;21.46;49.04;99254.97;238822;1190;139556;-58
2022/07/29 06:48:58;;;;;;;7.10;2.40;;;;;;;21.58;49.03;99256.29;238707;1192;139715;-59
2022/07/29 06:54:04;;;;;;;7.10;2.10;;;;;;;21.63;48.97;99254.98;238845;1190;139779;-60
2022/07/29 06:59:08;;;;;;;10.80;2.10;;;;;;;21.72;49.01;99257.29;238656;1192;139563;-57
2022/07/29 07:04:12;;;;;;;9.20;2.10;;;;;;;21.77;49.05;99256.38;238744;1192;139412;-59
2022/07/29 07:09:16;;;;;;;12.90;2.80;;;;;;;21.81;49.05;99254.30;238840;1190;140779;-59
2022/07/29 07:14:19;;;;;;;8.60;2.40;;;;;;;21.95;49.17;99249.76;238810;1190;139252;-59
2022/07/29 07:19:23;;;;;;;6.30;2.10;;;;;;;22.19;49.40;99244.00;238760;1190;139686;-57
2022/07/29 07:24:26;;;;;;;8.90;2.60;;;;;;;22.35;49.33;99237.72;238719;1190;140254;-58
2022/07/29 07:29:29;;;;;;;5.30;1.80;;;;;;;22.49;49.67;99238.05;238877;1190;139124;-59
2022/07/29 07:34:32;;;;;;;6.20;2.20;;;;;;;22.74;49.94;99239.09;238718;1190;139370;-59
2022/07/29 07:39:35;;;;;;;4.20;2.60;;;;;;;22.94;49.59;99237.45;238533;1190;140025;-58
2022/07/29 07:44:37;;;;;;;10.80;2.50;;;;;;;23.09;49.36;99239.63;238386;1192;139201;-59
2022/07/29 07:50:00;;;;;;;5.10;2.00;;;;;;;23.22;49.16;99244.91;238592;1190;139445;-59
2022/07/29 07:55:04;;;;;;;8.50;2.00;;;;;;;23.34;49.03;99246.66;238597;1190;141860;-59
2022/07/29 08:00:07;;;;;;;4.90;2.40;;;;;;;23.45;48.79;99242.73;238913;1190;139473;-60
2022/07/29 08:05:16;;;;;;;6.60;3.40;;;;;;;23.53;48.60;99238.14;238755;1192;139132;-59
2022/07/29 08:15:44;;;;;;;5.60;2.20;;;;;;;23.67;48.04;99228.08;238299;1192;139646;-60
2022/07/29 08:20:47;;;;;;;4.50;2.00;;;;;;;23.66;47.82;99232.67;238122;1192;139041;-59
2022/07/29 08:25:50;;;;;;;5.80;2.10;;;;;;;23.70;47.65;99234.84;238081;1193;139216;-59
2022/07/29 08:30:53;;;;;;;6.60;2.20;;;;;;;23.75;47.63;99232.20;238512;1192;139975;-59
2022/07/29 08:35:56;;;;;;;7.50;2.20;;;;;;;23.82;47.52;99228.91;238744;1192;138796;-58
2022/07/29 08:41:02;;;;;;;3.80;1.90;;;;;;;23.92;47.57;99226.48;238745;1190;138589;-59
2022/07/29 08:46:05;;;;;;;10.10;2.10;;;;;;;24.02;47.50;99224.63;238770;1190;139468;-59
2022/07/29 08:51:13;;;;;;;8.80;2.30;;;;;;;24.12;47.33;99225.80;238805;1191;139608;-59
2022/07/29 08:56:18;;;;;;;7.50;2.00;;;;;;;24.22;46.99;99227.07;238803;1190;139983;-59
2022/07/29 09:01:23;;;;;;;7.40;2.30;;;;;;;24.30;46.99;99222.47;238685;1192;140035;-59
2022/07/29 09:06:45;;;;;;;5.80;2.40;;;;;;;24.43;47.05;99218.98;238641;1192;139144;-59
2022/07/29 09:11:49;;;;;;;5.20;2.10;;;;;;;24.52;46.84;99215.50;238785;1192;139106;-59
2022/07/29 09:16:56;;;;;;;8.80;2.30;;;;;;;24.66;46.80;99216.09;238474;1191;139849;-58
2022/07/29 09:22:02;;;;;;;14.10;2.50;;;;;;;24.81;46.78;99212.33;237659;1193;139338;-58
2022/07/29 09:27:25;;;;;;;8.70;2.00;;;;;;;24.95;46.65;99210.98;238298;1191;138855;-58
2022/07/29 09:32:29;;;;;;;7.80;1.70;;;;;;;25.08;46.36;99222.77;238605;1192;138984;-58
2022/07/29 09:37:32;;;;;;;8.20;2.40;;;;;;;25.17;46.16;99216.41;238612;1192;139049;-60
2022/07/29 09:42:35;;;;;;;3.50;2.20;;;;;;;25.33;46.04;99209.67;238813;1191;139276;-59
2022/07/29 09:47:48;;;;;;;6.50;2.10;;;;;;;25.49;45.88;99195.45;238936;1190;138653;-59
2022/07/29 09:52:53;;;;;;;8.50;2.10;;;;;;;25.63;45.79;99187.55;238621;1190;138909;-60
2022/07/29 09:58:16;;;;;;;6.70;1.90;;;;;;;25.83;45.61;99185.14;238881;1191;139131;-58
2022/07/29 10:03:19;;;;;;;7.90;2.10;;;;;;;25.99;45.41;99185.08;238672;1192;138741;-59
2022/07/29 10:08:26;;;;;;;4.50;1.90;;;;;;;26.11;45.17;99181.79;238572;1191;139565;-59
2022/07/29 10:13:29;;;;;;;6.80;1.90;;;;;;;26.25;45.20;99178.63;238760;1190;139189;-59
2022/07/29 10:18:33;;;;;;;6.10;2.10;;;;;;;26.32;44.88;99168.20;238350;1191;139267;-58
2022/07/29 10:23:37;;;;;;;8.40;2.20;;;;;;;26.45;44.82;99161.38;238814;1190;139646;-59
2022/07/29 10:28:48;;;;;;;4.90;1.90;;;;;;;26.67;44.88;99160.95;238475;1190;139279;-59
2022/07/29 10:34:14;;;;;;;7.60;2.20;;;;;;;26.81;44.64;99158.00;238770;1190;139118;-59
2022/07/29 10:39:35;;;;;;;3.90;1.70;;;;;;;26.96;44.48;99158.05;238599;1190;140619;-59
2022/07/29 10:44:47;;;;;;;6.80;2.00;;;;;;;27.20;44.52;99148.80;238755;1191;139499;-59
2022/07/29 10:50:02;;;;;;;6.70;2.10;;;;;;;27.44;44.35;99139.16;238755;1191;139540;-59
2022/07/29 10:55:06;;;;;;;4.40;2.80;;;;;;;27.54;43.87;99137.83;238387;1192;139315;-59
2022/07/29 11:00:13;;;;;;;3.90;1.90;;;;;;;27.48;43.56;99136.11;238845;1192;139062;-59
2022/07/29 11:05:20;;;;;;;6.30;1.80;;;;;;;27.64;43.77;99135.89;238878;1190;139065;-58
2022/07/29 11:10:24;;;;;;;6.90;2.20;;;;;;;27.87;43.67;99131.45;238775;1190;139305;-60
2022/07/29 11:15:53;;;;;;;6.10;2.20;;;;;;;27.91;43.27;99118.88;238728;1190;138939;-59
2022/07/29 11:20:57;;;;;;;6.10;2.10;;;;;;;27.76;42.98;99117.55;238649;1190;139382;-57
2022/07/29 11:26:09;;;;;;;12.20;2.30;;;;;;;27.62;42.94;99114.34;238290;1192;231490;-59
2022/07/29 11:31:16;;;;;;;10.10;2.70;;;;;;;27.68;43.25;99117.91;238605;1191;139544;-60
2022/07/29 11:36:20;;;;;;;5.20;2.50;;;;;;;27.77;43.22;99117.30;238307;1192;139689;-59
2022/07/29 11:41:35;;;;;;;7.10;2.30;;;;;;;27.74;43.05;99117.61;238549;1190;139210;-59
2022/07/29 11:46:51;;;;;;;5.20;2.10;;;;;;;27.88;43.30;99118.20;238826;1190;138947;-59
2022/07/29 11:51:57;;;;;;;5.70;2.10;;;;;;;28.22;43.28;99114.91;238806;1192;139334;-59
2022/07/29 11:57:01;;;;;;;3.70;2.20;;;;;;;28.51;43.29;99108.05;238813;1191;139669;-59
2022/07/29 12:02:03;;;;;;;7.50;2.10;;;;;;;28.89;43.16;99107.30;238373;1191;138857;-59
2022/07/29 12:07:36;;;;;;;6.60;2.20;;;;;;;29.22;42.72;99097.00;238300;1192;139124;-59
2022/07/29 12:12:39;;;;;;;8.00;2.00;;;;;;;29.47;42.07;99086.96;238497;1192;139560;-60
2022/07/29 12:17:43;;;;;;;4.70;2.70;;;;;;;29.64;41.84;99081.86;238977;1190;139228;-59
2022/07/29 12:22:48;;;;;;;6.90;2.10;;;;;;;29.80;41.45;99080.66;238788;1191;140156;-60
2022/07/29 12:28:01;;;;;;;4.70;2.20;;;;;;;30.01;41.19;99077.48;238651;1192;138965;-60
2022/07/29 12:33:27;;;;;;;6.50;2.00;;;;;;;30.20;41.15;99068.88;238633;1192;138918;-59
2022/07/29 12:38:30;;;;;;;10.20;2.20;;;;;;;30.41;40.76;99067.38;238650;1192;139889;-60
2022/07/29 12:43:33;;;;;;;7.10;2.50;;;;;;;30.60;40.37;99059.74;238617;1191;140525;-60
2022/07/29 12:48:38;;;;;;;7.80;2.10;;;;;;;30.66;39.84;99054.12;238850;1192;138986;-59
2022/07/29 12:53:41;;;;;;;8.30;2.70;;;;;;;30.54;39.91;99046.86;238714;1192;139365;-60
2022/07/29 12:58:44;;;;;;;4.90;2.30;;;;;;;30.63;39.86;99045.23;238751;1193;139182;-59
2022/07/29 13:04:00;;;;;;;5.00;2.30;;;;;;;30.59;39.42;99047.34;238719;1191;139759;-60
2022/07/29 13:09:19;;;;;;;6.50;2.30;;;;;;;30.50;39.62;99040.19;238647;1192;138796;-58
2022/07/29 13:14:52;;;;;;;5.70;2.60;;;;;;;30.41;39.54;99033.74;238524;1192;140772;-60
2022/07/29 13:20:12;;;;;;;4.40;2.40;;;;;;;30.21;39.60;99029.41;238246;1192;140017;-59
2022/07/29 13:25:27;;;;;;;6.30;2.40;;;;;;;29.93;39.43;99024.98;238675;1191;139559;-59
2022/07/29 13:30:30;;;;;;;7.10;2.70;;;;;;;29.70;39.73;99029.75;238822;1190;139651;-61
2022/07/29 13:35:33;;;;;;;8.20;3.40;;;;;;;29.54;39.99;99023.56;238948;1190;139047;-60
2022/07/29 13:40:41;;;;;;;7.90;2.60;;;;;;;29.63;40.31;99022.46;238780;1190;139878;-60
2022/07/29 13:45:44;;;;;;;9.00;3.00;;;;;;;30.01;40.33;99008.70;238777;1190;139080;-59
2022/07/29 13:50:48;;;;;;;10.10;3.00;;;;;;;30.37;40.20;98995.04;238766;1192;139477;-60
2022/07/29 13:55:51;;;;;;;8.20;3.00;;;;;;;30.61;39.65;98991.69;238658;1192;140141;-60
2022/07/29 14:00:55;;;;;;;11.30;3.30;;;;;;;30.79;39.58;98986.24;238632;1192;138885;-60
2022/07/29 14:05:59;;;;;;;12.70;2.90;;;;;;;30.99;39.24;98981.94;238626;1190;139335;-60
2022/07/29 14:11:04;;;;;;;13.00;3.10;;;;;;;31.14;39.04;98978.45;238584;1191;139568;-60
2022/07/29 14:16:07;;;;;;;16.00;3.40;;;;;;;31.33;38.79;98977.54;238498;1192;140653;-59
2022/07/29 14:21:09;;;;;;;6.10;3.00;;;;;;;31.41;38.39;98973.04;238609;1192;140430;-60
2022/07/29 14:26:13;;;;;;;9.90;3.00;;;;;;;31.07;37.77;98964.59;238659;1192;139202;-59
2022/07/29 14:31:23;;;;;;;8.60;3.60;;;;;;;30.57;37.80;98966.50;238597;1192;139942;-60
2022/07/29 14:36:27;;;;;;;6.00;3.00;;;;;;;30.23;37.89;98965.65;238716;1190;138776;-59
2022/07/29 14:41:30;;;;;;;4.10;2.50;;;;;;;29.91;38.33;98965.25;238861;1190;139740;-60
2022/07/29 14:46:33;;;;;;;11.60;2.70;;;;;;;29.73;38.44;98960.06;238699;1190;139652;-59
2022/07/29 14:51:36;;;;;;;7.50;2.60;;;;;;;29.73;38.52;98946.00;238766;1191;138656;-60
2022/07/29 14:56:39;;;;;;;3.50;2.10;;;;;;;29.67;38.94;98936.13;238471;1192;139696;-60
2022/07/29 15:01:49;;;;;;;5.40;2.50;;;;;;;29.59;38.98;98928.77;238616;1192;138825;-60
2022/07/29 15:06:52;;;;;;;6.40;2.50;;;;;;;29.51;39.01;98932.84;238558;1190;140327;-58
2022/07/29 15:11:55;;;;;;;7.80;2.80;;;;;;;29.33;38.81;98939.02;238687;1190;139682;-59
2022/07/29 15:16:59;;;;;;;2.60;2.20;;;;;;;29.10;38.95;98946.69;238425;1192;140103;-60
2022/07/29 15:22:07;;;;;;;6.30;2.70;;;;;;;28.90;39.17;98953.05;238269;1193;139085;-59
2022/07/29 15:27:13;;;;;;;3.40;2.50;;;;;;;28.77;39.17;98973.23;237997;1192;139896;-59
2022/07/29 15:32:16;;;;;;;14.00;4.00;;;;;;;28.71;39.34;98980.75;238289;1193;139507;-59
2022/07/29 15:37:20;;;;;;;7.50;2.30;;;;;;;28.65;39.55;98968.62;238622;1190;140108;-59
2022/07/29 15:42:23;;;;;;;4.90;2.60;;;;;;;28.55;39.69;98961.73;238849;1190;138964;-59
2022/07/29 15:47:26;;;;;;;6.10;2.50;;;;;;;28.44;39.76;98956.73;238846;1190;140036;-59
2022/07/29 15:52:29;;;;;;;4.60;2.70;;;;;;;28.34;39.73;98961.14;238488;1192;139646;-59
2022/07/29 15:57:33;;;;;;;5.70;2.30;;;;;;;28.25;40.18;98966.14;238650;1192;140663;-61
2022/07/29 16:02:36;;;;;;;4.80;2.50;;;;;;;28.20;40.25;98967.54;238443;1192;139433;-60
2022/07/29 16:07:39;;;;;;;9.00;3.10;;;;;;;28.14;40.34;98966.08;238661;1190;139438;-59
2022/07/29 16:12:42;;;;;;;7.50;3.20;;;;;;;28.06;40.44;98969.69;238813;1190;139832;-57
2022/07/29 16:17:45;;;;;;;8.70;2.80;;;;;;;27.97;40.52;98977.46;238738;1192;138980;-59
2022/07/29 16:22:48;;;;;;;8.10;2.80;;;;;;;27.89;40.86;98994.38;238653;1191;140234;-58
2022/07/29 16:27:51;;;;;;;8.70;3.00;;;;;;;27.75;41.41;99009.27;238788;1192;141320;-58
2022/07/29 16:33:00;;;;;;;6.10;2.90;;;;;;;27.61;41.86;99017.00;238577;1191;139825;-59
2022/07/29 16:38:09;;;;;;;6.30;3.50;;;;;;;27.42;42.98;99019.41;238660;1192;140014;-59
2022/07/29 16:43:12;;;;;;;9.70;3.70;;;;;;;27.14;43.87;99028.13;238842;1191;139883;-59
2022/07/29 16:48:15;;;;;;;7.20;3.20;;;;;;;26.85;44.78;99062.91;238991;1190;139654;-59
2022/07/29 16:53:20;;;;;;;4.00;2.80;;;;;;;26.37;45.45;99070.79;238860;1190;139731;-60
2022/07/29 16:58:25;;;;;;;;;;;;;;;25.85;46.17;99081.59;238558;1191;139590;-60
2022/07/29 17:03:28;;;;;;;3.50;2.30;;;;;;;25.43;46.99;99095.27;238624;1192;126013;-58
2022/07/29 17:08:31;;;;;;;2.90;2.20;;;;;;;25.07;47.76;99104.60;238577;1190;140431;-60
2022/07/29 17:13:34;;;;;;;5.20;2.60;;;;;;;24.71;48.42;99097.20;238443;1192;140444;-59
2022/07/29 17:18:36;;;;;;;4.10;2.40;;;;;;;24.43;49.48;99091.05;238526;1191;139783;-60
2022/07/29 17:23:39;;;;;;;6.80;2.60;;;;;;;24.25;50.03;99093.41;238792;1190;139026;-60
2022/07/29 17:28:42;;;;;;;4.80;2.50;;;;;;;24.07;50.58;99091.65;238613;1190;139812;-58
2022/07/29 17:33:45;;;;;;;4.60;2.90;;;;;;;23.94;51.10;99084.68;238482;1190;139674;-58
2022/07/29 17:38:53;;;;;;;5.10;2.60;;;;;;;23.89;51.66;99080.27;238680;1190;139823;-56
2022/07/29 17:43:56;;;;;;;6.40;2.70;;;;;;;23.86;52.22;99074.77;238652;1190;140113;-60
2022/07/29 17:48:59;;;;;;;3.40;2.70;;;;;;;23.83;52.42;99077.14;238161;1190;140219;-59
2022/07/29 17:54:02;;;;;;;4.60;3.00;;;;;;;23.75;52.94;99080.61;238511;1192;232259;-57
2022/07/29 17:59:07;;;;;;;4.40;2.70;;;;;;;23.61;53.30;99079.84;238280;1190;140057;-60
2022/07/29 18:04:10;;;;;;;7.10;3.00;;;;;;;23.55;53.74;99079.38;238077;1192;144009;-60
2022/07/29 18:09:13;;;;;;;9.20;3.50;;;;;;;23.53;54.30;99080.90;238250;1192;140829;-59
2022/07/29 18:14:16;;;;;;;6.00;2.80;;;;;;;23.48;54.42;99084.29;238372;1192;140728;-59
2022/07/29 18:19:19;;;;;;;4.70;2.70;;;;;;;23.41;54.67;99080.75;238762;1190;140557;-59
2022/07/29 18:24:24;;;;;;;4.10;2.40;;;;;;;23.32;55.10;99077.13;238532;1192;140992;-59
2022/07/29 18:29:29;;;;;;;;;;;;;;;23.22;55.17;99070.16;238624;1190;140925;-59
2022/07/29 18:34:32;;;;;;;11.50;5.00;;;;;;;23.09;55.42;99072.21;238555;1190;126261;-60
2022/07/29 18:39:35;;;;;;;10.70;5.30;;;;;;;22.98;55.73;99077.98;238561;1190;140210;-58
2022/07/29 18:44:38;;;;;;;12.60;6.30;;;;;;;22.90;56.03;99068.91;238637;1190;140764;-60
2022/07/29 18:49:50;;;;;;;17.20;8.50;;;;;;;22.88;56.56;99047.10;238437;1192;139379;-59
2022/07/29 18:54:53;;;;;;;23.20;11.30;;;;;;;22.90;56.73;99029.45;238331;1192;140372;-59
2022/07/29 18:59:56;;;;;;;13.10;7.00;;;;;;;22.87;56.73;99024.87;238450;1192;139965;-59
2022/07/29 19:04:59;;;;;;;6.60;3.90;;;;;;;22.87;56.82;99022.39;238572;1190;139982;-59
2022/07/29 19:10:03;;;;;;;6.30;3.90;;;;;;;22.85;56.99;99012.14;238424;1192;139872;-59
2022/07/29 19:15:07;;;;;;;11.00;6.20;;;;;;;22.79;56.88;99015.38;238062;1192;142470;-59
2022/07/29 19:20:10;;;;;;;13.50;9.40;;;;;;;22.63;56.76;99028.54;238345;1192;141264;-59
2022/07/29 19:25:13;;;;;;;17.30;11.20;;;;;;;22.50;56.91;99037.20;238540;1192;139546;-59
2022/07/29 19:30:17;;;;;;;14.90;10.20;;;;;;;22.42;57.16;99058.36;238814;1190;140408;-58
2022/07/29 19:35:23;;;;;;;13.20;8.50;;;;;;;22.35;57.36;99105.29;238295;1192;141931;-59
2022/07/29 19:40:27;;;;;;;6.90;4.10;;;;;;;22.31;57.58;99122.46;238314;1192;140130;-58
2022/07/29 19:45:31;;;;;;;7.40;3.60;;;;;;;22.36;57.61;99125.52;238364;1192;140436;-59
2022/07/29 19:50:34;;;;;;;4.30;2.80;;;;;;;22.36;57.67;99126.40;238519;1190;139552;-60
2022/07/29 19:55:37;;;;;;;5.00;2.80;;;;;;;22.36;57.70;99110.70;238447;1190;140901;-60
2022/07/29 20:00:40;;;;;;;4.70;2.70;;;;;;;22.36;57.93;99103.89;238695;1192;139935;-59
2022/07/29 20:05:46;;;;;;;5.30;3.00;;;;;;;22.35;58.05;99089.88;238594;1191;140150;-59
2022/07/29 20:10:50;;;;;;;4.80;2.90;;;;;;;22.32;58.28;99082.95;238336;1192;140369;-62
2022/07/29 20:15:52;;;;;;;5.20;3.00;;;;;;;22.30;58.44;99078.16;238602;1190;140783;-59
2022/07/29 20:20:56;;;;;;;3.90;3.30;;;;;;;22.30;58.59;99066.23;238715;1190;139674;-59
2022/07/29 20:25:59;;;;;;;4.30;3.20;;;;;;;22.30;58.77;99055.98;238552;1192;139680;-59
2022/07/29 20:31:02;;;;;;;4.60;3.50;;;;;;;22.29;58.74;99050.92;238534;1191;139868;-58
2022/07/29 20:36:05;;;;;;;6.40;3.80;;;;;;;22.30;58.93;99050.64;238600;1192;140678;-57
2022/07/29 20:41:08;;;;;;;4.80;3.50;;;;;;;22.32;59.03;99046.98;238542;1192;140117;-57
2022/07/29 20:46:11;;;;;;;4.20;3.60;;;;;;;22.32;58.99;99047.05;238695;1191;140628;-60
2022/07/29 20:51:14;;;;;;;5.10;3.70;;;;;;;22.29;59.05;99037.19;238538;1191;139964;-59
2022/07/29 20:56:18;;;;;;;4.90;3.50;;;;;;;22.24;59.21;99029.08;238543;1192;142065;-59
2022/07/29 21:01:21;;;;;;;6.30;3.40;;;;;;;22.24;59.30;99028.00;238747;1190;140030;-59
2022/07/29 21:06:24;;;;;;;7.20;3.40;;;;;;;22.24;59.31;99023.16;238869;1190;140752;-60
2022/07/29 21:11:27;;;;;;;5.60;3.70;;;;;;;22.20;59.34;99023.80;239027;1190;139854;-60
2022/07/29 21:16:46;;;;;;;4.50;3.10;;;;;;;22.13;59.40;99017.83;238400;1192;139824;-58
2022/07/29 21:21:50;;;;;;;4.20;3.30;;;;;;;22.10;59.57;99018.39;238561;1191;140694;-57
2022/07/29 21:28:25;;;;;;;4.00;3.00;;;;;;;22.13;59.73;99030.51;238177;1192;140427;-59
2022/07/29 21:32:22;;;;;;;5.50;3.20;;;;;;;22.14;59.83;99029.48;238040;1192;139647;-59
2022/07/29 21:37:32;;;;;;;4.00;3.40;;;;;;;22.12;59.87;99037.09;238776;1190;139661;-59
2022/07/29 21:42:34;;;;;;;4.90;2.90;;;;;;;22.13;59.99;99038.23;238782;1190;139666;-57
2022/07/29 21:47:37;;;;;;;2.60;2.40;;;;;;;22.10;59.88;99041.60;238780;1190;141403;-60
2022/07/29 21:52:40;;;;;;;4.80;2.60;;;;;;;22.06;59.99;99042.27;238620;1191;140202;-59
2022/07/29 21:57:43;;;;;;;4.40;2.40;;;;;;;22.08;60.04;99041.69;238589;1190;140892;-59
2022/07/29 22:02:47;;;;;;;3.70;2.70;;;;;;;22.07;60.06;99047.38;238619;1190;139729;-59
2022/07/29 22:07:50;;;;;;;4.20;2.90;;;;;;;22.06;60.07;99052.23;238759;1190;140454;-59
2022/07/29 22:13:00;;;;;;;6.80;3.20;;;;;;;22.02;60.25;99041.63;238533;1192;139060;-59
2022/07/29 22:18:03;;;;;;;3.00;2.70;;;;;;;21.99;60.21;99041.66;238413;1191;139406;-59
2022/07/29 22:23:06;;;;;;;3.50;2.60;;;;;;;21.99;60.26;99049.38;238351;1192;141266;-59
2022/07/29 22:28:09;;;;;;;3.80;3.30;;;;;;;22.00;60.40;99048.93;238573;1191;139683;-60
2022/07/29 22:33:12;;;;;;;3.70;2.90;;;;;;;21.97;60.42;99044.50;238590;1192;139263;-59
2022/07/29 22:38:19;;;;;;;4.00;2.70;;;;;;;21.94;60.40;99039.55;238487;1191;140050;-60
2022/07/29 22:43:22;;;;;;;4.00;2.50;;;;;;;21.90;60.51;99027.04;238457;1192;140337;-59
2022/07/29 22:48:26;;;;;;;3.80;2.80;;;;;;;21.84;60.52;99011.13;238470;1192;142034;-59
2022/07/29 22:53:28;;;;;;;3.40;2.80;;;;;;;21.79;60.65;99004.92;238633;1192;140076;-58
2022/07/29 22:58:31;;;;;;;3.70;2.60;;;;;;;21.79;60.62;98994.11;238857;1190;231937;-59
2022/07/29 23:03:34;;;;;;;4.30;3.00;;;;;;;21.79;60.68;98984.40;238839;1190;140322;-59
2022/07/29 23:08:37;;;;;;;5.10;2.80;;;;;;;21.79;60.88;98969.33;238783;1190;139678;-59
2022/07/29 23:13:40;;;;;;;3.70;3.00;;;;;;;21.74;60.82;98973.02;238810;1190;139016;-60
2022/07/29 23:18:44;;;;;;;4.00;2.70;;;;;;;21.67;60.92;98982.55;238713;1190;139581;-59
2022/07/29 23:23:48;;;;;;;4.80;2.80;;;;;;;21.63;61.16;98980.71;239011;1190;139467;-59
2022/07/29 23:28:50;;;;;;;6.10;2.90;;;;;;;21.61;61.09;98971.52;238725;1192;139951;-59
2022/07/29 23:33:53;;;;;;;4.70;2.80;;;;;;;21.61;61.08;98967.19;238722;1192;139458;-60
2022/07/29 23:38:56;;;;;;;5.20;2.90;;;;;;;21.59;61.17;98951.13;238759;1191;138656;-59